Kyburz, CA (95720)

1:26 PM PST on December 19, 2014 (GMT -0800)
RAWS SUGARLOAF (ENF) CA US | Change Station
CLOSE
Current Station
Personal Weather Station
Location: Kyburz, CA
Elevation: 5652 ft
Nearby Weather Stations
Active Advisory: Winter Weather Advisory

Elev 5652 ft 38.78 °N, 120.31 °W | Updated 651 days ago

Snow
Snow
39 °F
Feels Like 32 °F
N
9
Wind Variable Wind from SW
Gusts 13 mph

Today
High -- | Low -- °F
--% Chance of Precip.
Yesterday
High -- | Low -- °F
Precip. -- in
7:14 AM 4:41 PM
Waning Crescent, 6% visible
Pressure 30.15 in
Visibility 0.8 miles
Clouds Overcast 1000 ft
Windchill 32 °F
Dew Point 30 °F
Humidity 66%
Rainfall 0.01 in
Snow Depth Not available.
UV 1 out of 12
Pollen 1.70 out of 12
Air Quality Not available.
Flu Activity Not available.
SPECI KTVL 192100Z AUTO VRB04KT 3/4SM -SN BR OVC010 02/M01 A3015 RMK AO2 P0001 T00171006

More Conditions Fewer Conditions

Pressure 30.15 in
Visibility 0.8 miles
Clouds Overcast 1000 ft
Windchill 32 °F
Dew Point 30 °F
Humidity 66%
Rainfall 0.01 in
Snow Depth Not available.
UV 1 out of 12
Pollen 1.70 out of 12
Air Quality Not available.
Flu Activity Not available.
SPECI KTVL 192100Z AUTO VRB04KT 3/4SM -SN BR OVC010 02/M01 A3015 RMK AO2 P0001 T00171006

More Conditions Fewer Conditions

10-Day Weather Forecast

Almanac

Astronomy

Dec. 19, 2014 Rise Set
Actual Time
Civil Twilight
Nautical Twilight
Astronomical Twilight
Moon
Length of Visible Light
Length of Day
Tomorrow will be .
, % of the Moon is Illuminated

Today's Extremes

State Highs State Lows

Community

WunderPhotos

Upload Photos

1,779,057 photos uploaded!

WunderBlogs® & News

Nearby

Air Quality

  Air Quality AQ Index Pollutant
Not available.

Snow Depth

Station Depth Elevation

Earthquake Activity

City Distance Mag. Time & Date
Minimum magnitude displayed is 2.5.

Coastal Water Temperatures

Place Temperature

Nearby Weather Stations